Latest Weather Observations for Wyndham Airport

IDW60801

Issued at 9:34 am WST Saturday 25 March 2017 (issued every 30 minutes, with the page automatically refreshed every 10 minutes)

About weather observations | Map of weather stations | Latest weather observations for WA | Other Formats
Station Details ID: 001006 Name: WYNDHAM AERO Lat: -15.51 Lon: 128.15 Height: 3.8 m
Data from the previous 72 hours. | See also: Recent months at Wyndham Airport
Date/Time
WST
Temp
°C
App
Temp
°C
Dew
Point
°C
Rel
Hum
%
Delta-T
°C
Wind Press
QNH
hPa
Press
MSL
hPa
Rain since
9am
mm
Dir  Spd
km/h
Gust
km/h
Spd
kts
Gust
kts
25/09:30am 33.1 36.3 23.7 57 6.5 SE 13 17 7 9 1008.7 1008.7 0.0
25/09:00am 32.4 35.4 23.4 59 6.2 SE 13 17 7 9 1008.8 1008.8 0.0
25/08:30am 32.0 35.4 23.3 60 6.0 SE 11 15 6 8 1008.9 1008.9 0.0
25/08:00am 31.8 35.7 23.6 62 5.7 ESE 9 11 5 6 1008.9 1008.9 0.0
25/07:30am 31.1 35.7 24.2 66 4.8 E 7 9 4 5 1008.7 1008.7 0.0
25/07:00am 30.2 35.5 25.3 75 3.5 ENE 7 9 4 5 1008.5 1008.5 0.0
25/06:30am 27.8 33.7 26.2 91 1.1 NE 7 11 4 6 1008.1 1008.1 0.0
25/06:00am 27.0 33.6 27.0 100 0.0 NE 6 7 3 4 1008.0 1008.0 0.0
25/05:30am 26.7 33.1 26.7 100 0.0 ENE 6 7 3 4 1007.8 1007.8 0.0
25/05:00am 27.1 32.8 27.1 100 0.0 E 11 15 6 8 1007.3 1007.3 0.0
25/04:30am 26.6 33.0 26.6 100 0.0 SE 6 9 3 5 1006.6 1006.6 0.0
25/04:00am 26.8 33.7 26.3 97 0.4 NE 2 6 1 3 1006.2 1006.2 0.0
25/03:30am 26.8 32.6 26.1 96 0.5 E 7 11 4 6 1005.8 1005.8 0.0
25/03:00am 26.8 32.4 26.3 97 0.4 E 9 11 5 6 1005.4 1005.4 0.0
25/02:30am 27.1 32.8 26.4 96 0.5 E 9 11 5 6 1005.8 1005.8 0.0
25/02:00am 27.4 32.8 27.1 98 0.2 E 13 15 7 8 1006.2 1006.2 0.0
25/01:30am 27.7 32.5 27.4 98 0.2 ESE 17 24 9 13 1006.9 1006.9 0.0
25/01:00am 27.5 34.9 26.4 94 0.8 CALM 0 0 0 0 1007.2 1007.2 0.0
25/12:30am 27.4 34.4 25.8 91 1.1 CALM 0 0 0 0 1007.3 1007.3 0.0
25/12:00am 27.3 34.2 25.7 91 1.1 CALM 0 0 0 0 1007.6 1007.6 0.0
 
Date/Time
WST
Temp
°C
App
Temp
°C
Dew
Point
°C
Rel
Hum
%
Delta-T
°C
Wind Press
QNH
hPa
Press
MSL
hPa
Rain since
9am
mm
Dir  Spd
km/h
Gust
km/h
Spd
kts
Gust
kts
24/11:30pm 27.3 33.9 25.3 89 1.4 CALM 0 2 0 1 1007.7 1007.7 0.0
24/11:00pm 28.1 34.5 25.5 86 1.8 SE 2 6 1 3 1008.0 1008.0 0.0
24/10:30pm 27.8 33.5 25.0 85 2.0 NE 4 7 2 4 1008.2 1008.2 0.0
24/10:00pm 28.1 34.5 24.9 83 2.2 CALM 0 6 0 3 1008.4 1008.4 0.0
24/09:30pm 28.5 34.9 24.9 81 2.5 CALM 0 0 0 0 1008.3 1008.3 0.0
24/09:00pm 28.6 35.2 25.2 82 2.4 CALM 0 0 0 0 1008.3 1008.3 0.0
24/08:30pm 29.0 34.3 25.0 79 2.8 NW 6 7 3 4 1007.9 1007.9 0.0
24/08:00pm 29.0 34.1 25.0 79 2.8 NNW 7 11 4 6 1007.6 1007.6 0.0
24/07:30pm 28.5 33.1 24.1 77 3.0 NE 7 9 4 5 1007.1 1007.1 0.0
24/07:00pm 29.0 33.2 23.4 72 3.9 NNW 7 11 4 6 1006.3 1006.3 0.0
24/06:30pm 28.7 31.8 23.6 74 3.5 ENE 13 15 7 8 1005.9 1005.9 0.0
24/06:00pm 29.0 32.4 24.1 75 3.4 E 13 15 7 8 1005.6 1005.6 0.0
24/05:30pm 29.6 32.1 23.8 71 4.0 E 17 22 9 12 1005.4 1005.4 0.0
24/05:00pm 30.0 32.9 24.4 72 3.9 ESE 17 24 9 13 1005.4 1005.4 0.0
24/04:30pm 30.5 31.4 23.4 66 4.9 ESE 24 35 13 19 1005.3 1005.3 0.0
24/04:04pm 30.3 30.3 23.0 65 5.0 ENE 28 46 15 25 1005.3 1005.3 0.0
24/04:00pm 30.3 29.2 22.5 63 5.3 ENE 32 46 17 25 1005.3 1005.3 0.0
24/03:30pm 32.8 33.4 21.3 50 7.8 NE 20 46 11 25 1004.9 1004.9 0.0
24/03:29pm 33.2 33.8 21.0 48 8.2 NE 19 46 10 25 1004.8 1004.8 0.0
24/03:00pm 36.6 38.2 20.0 38 11.1 ENE 11 17 6 9 1004.4 1004.4 0.0
24/02:30pm 37.5 40.1 21.2 38 11.1 E 9 15 5 8 1004.4 1004.4 0.0
24/02:00pm 37.3 38.5 20.6 37 11.3 SE 15 20 8 11 1004.9 1004.9 0.0
24/01:30pm 37.3 39.4 21.0 38 11.1 SE 11 15 6 8 1005.3 1005.3 0.0
24/01:00pm 36.7 39.4 21.3 40 10.5 ESE 9 15 5 8 1005.5 1005.5 0.0
24/12:30pm 36.4 38.9 21.8 42 10.0 SE 11 17 6 9 1006.1 1006.1 0.0
24/12:00pm 36.5 39.7 23.0 45 9.4 SE 11 15 6 8 1006.6 1006.6 0.0
24/11:30am 35.5 39.0 22.8 47 8.8 SSW 9 15 5 8 1007.0 1007.0 0.0
24/11:00am 35.6 39.9 23.6 50 8.4 SSW 7 17 4 9 1007.8 1007.8 0.0
24/10:30am 35.1 39.3 23.4 50 8.1 NW 7 11 4 6 1008.3 1008.3 0.0
24/10:00am 35.2 41.0 24.5 54 7.6 SW 2 7 1 4 1008.8 1008.8 0.0
24/09:30am 33.3 37.8 23.6 56 6.7 WSW 6 13 3 7 1009.1 1009.1 0.0
24/09:00am 32.7 37.5 24.2 61 6.0 NW 6 9 3 5 1009.1 1009.1 0.0
24/08:30am 32.1 37.0 24.4 63 5.4 WSW 6 9 3 5 1009.2 1009.2 0.0
24/08:00am 31.5 36.4 23.6 63 5.5 WSW 4 7 2 4 1009.2 1009.2 0.0
24/07:30am 30.8 36.2 25.4 73 3.8 ESE 7 9 4 5 1009.1 1009.1 0.0
24/07:00am 29.5 35.7 26.3 83 2.3 SE 6 9 3 5 1009.0 1009.0 0.0
24/06:30am 28.8 35.9 27.2 91 1.2 ENE 4 7 2 4 1008.9 1008.9 0.0
24/06:00am 27.0 33.4 27.0 100 0.0 NE 7 9 4 5 1008.6 1008.6 0.0
24/05:30am 26.7 32.7 26.4 98 0.2 E 7 9 4 5 1008.3 1008.3 0.0
24/05:00am 26.6 33.3 26.6 100 0.0 ENE 4 9 2 5 1008.1 1008.1 0.0
24/04:30am 27.0 34.3 26.3 96 0.5 CALM 0 0 0 0 1008.0 1008.0 0.0
24/04:00am 26.8 33.7 26.3 97 0.4 NNE 2 7 1 4 1007.8 1007.8 0.0
24/03:30am 27.4 33.9 26.2 93 0.9 SE 4 7 2 4 1007.4 1007.4 0.0
24/03:00am 27.5 33.7 26.4 94 0.8 ESE 6 9 3 5 1007.7 1007.7 0.0
24/02:30am 27.2 32.8 25.4 90 1.3 SE 6 7 3 4 1007.7 1007.7 0.0
24/02:00am 27.5 34.3 25.5 89 1.4 CALM 0 0 0 0 1007.8 1007.8 0.0
24/01:30am 27.3 34.1 25.5 90 1.3 CALM 0 0 0 0 1007.9 1007.9 0.0
24/01:00am 27.8 34.4 25.2 86 1.8 CALM 0 0 0 0 1007.5 1007.5 0.0
24/12:30am 28.2 34.8 25.2 84 2.1 CALM 0 0 0 0 1007.7 1007.7 0.0
24/12:00am 27.9 33.4 24.7 83 2.2 N 4 7 2 4 1008.0 1008.0 0.0
 
Date/Time
WST
Temp
°C
App
Temp
°C
Dew
Point
°C
Rel
Hum
%
Delta-T
°C
Wind Press
QNH
hPa
Press
MSL
hPa
Rain since
9am
mm
Dir  Spd
km/h
Gust
km/h
Spd
kts
Gust
kts
23/11:30pm 28.1 33.5 24.5 81 2.5 N 4 6 2 3 1008.3 1008.3 0.0
23/11:00pm 28.4 34.7 24.8 81 2.5 CALM 0 0 0 0 1008.5 1008.5 0.0
23/10:30pm 28.3 33.4 24.7 81 2.5 NE 6 7 3 4 1008.7 1008.7 0.0
23/10:00pm 28.3 33.2 24.3 79 2.8 NNE 6 7 3 4 1009.0 1009.0 0.0
23/09:30pm 28.5 33.5 24.5 79 2.8 NNE 6 7 3 4 1009.4 1009.4 0.0
23/09:00pm 28.9 34.3 24.5 77 3.1 ESE 4 7 2 4 1009.3 1009.3 0.0
23/08:30pm 28.7 33.2 23.6 74 3.5 NE 6 9 3 5 1009.2 1009.2 0.0
23/08:00pm 28.9 32.6 23.3 72 3.8 ESE 9 13 5 7 1008.9 1008.9 0.0
23/07:30pm 29.1 31.8 23.5 72 3.9 ENE 15 20 8 11 1008.3 1008.3 0.0
23/07:00pm 29.9 32.3 23.6 69 4.4 E 17 24 9 13 1008.1 1008.1 0.0
23/06:30pm 30.4 32.6 23.3 66 4.9 ESE 17 28 9 15 1007.7 1007.7 0.0
23/06:00pm 30.7 34.2 22.8 62 5.4 SE 9 13 5 7 1007.3 1007.3 0.0
23/05:30pm 31.8 34.3 23.1 60 6.0 E 15 20 8 11 1006.5 1006.5 0.0
23/05:00pm 32.8 35.9 22.9 56 6.8 NE 11 13 6 7 1006.2 1006.2 0.0
23/04:30pm 33.8 36.9 22.9 53 7.5 SSE 11 15 6 8 1005.9 1005.9 0.0
23/04:00pm 33.4 35.0 22.2 52 7.7 ESE 17 24 9 13 1006.1 1006.1 0.0
23/03:30pm 36.3 38.8 22.5 45 9.5 SSW 13 20 7 11 1005.8 1005.8 0.0
23/03:00pm 35.4 36.1 21.6 44 9.4 SW 20 28 11 15 1005.4 1005.4 0.0
23/02:30pm 36.1 39.4 21.9 43 9.7 N 7 17 4 9 1005.8 1005.8 0.0
23/02:00pm 37.4 39.9 21.1 38 11.1 SE 9 15 5 8 1006.0 1006.0 0.0
23/01:30pm 37.3 42.0 23.4 45 9.7 NNW 4 13 2 7 1006.3 1006.3 0.0
23/01:00pm 36.9 39.9 21.9 42 10.3 ESE 9 15 5 8 1006.8 1006.8 0.0
23/12:30pm 37.1 40.8 23.2 45 9.7 S 9 13 5 7 1007.0 1007.0 0.0
23/12:00pm 35.6 38.9 22.5 46 9.0 SSW 9 17 5 9 1007.3 1007.3 0.0
23/11:30am 35.7 39.8 24.0 51 8.2 WNW 9 17 5 9 1007.9 1007.9 0.0
23/11:00am 36.3 41.5 24.2 49 8.5 N 4 9 2 5 1008.6 1008.6 0.0
23/10:30am 34.9 39.9 24.8 55 7.1 WSW 7 13 4 7 1008.6 1008.6 0.0
23/10:00am 34.0 38.6 24.8 58 6.5 WSW 9 13 5 7 1009.1 1009.1 0.0
23/09:30am 33.2 37.9 25.5 64 5.5 SW 11 17 6 9 1009.4 1009.4 0.0
23/09:00am 32.6 37.2 25.9 68 4.8 SW 13 19 7 10 1009.7 1009.7 0.0
23/08:30am 31.8 35.4 25.6 69 4.4 WSW 17 22 9 12 1009.7 1009.7 0.0
23/08:00am 31.0 33.7 25.6 73 3.8 WSW 22 26 12 14 1009.7 1009.7 0.0
23/07:30am 30.4 33.0 25.5 75 3.5 WSW 22 30 12 16 1009.8 1009.8 0.0
23/07:00am 30.0 34.2 26.0 79 2.8 W 15 20 8 11 1009.5 1009.5 0.0
23/06:30am 29.2 33.3 25.8 82 2.4 W 15 19 8 10 1009.2 1009.2 0.0
23/06:00am 27.9 33.1 26.3 91 1.1 WNW 11 13 6 7 1009.1 1009.1 0.0
23/05:30am 26.9 32.6 26.4 97 0.4 NW 9 11 5 6 1009.0 1009.0 0.0
23/05:00am 27.5 32.2 26.1 92 1.0 NW 13 13 7 7 1008.7 1008.7 0.0
23/04:30am 27.1 33.6 26.2 95 0.6 NW 4 11 2 6 1008.4 1008.4 0.0
23/04:00am 27.5 35.0 26.6 95 0.6 CALM 0 0 0 0 1008.1 1008.1 0.0
23/03:30am 27.5 35.4 27.2 98 0.2 CALM 0 0 0 0 1008.1 1008.1 0.0
23/03:00am 28.0 35.7 26.9 94 0.8 CALM 0 0 0 0 1007.8 1007.8 0.0
23/02:30am 28.1 34.9 27.2 95 0.6 WNW 6 6 3 3 1007.6 1007.6 0.0
23/02:00am 27.9 35.9 27.4 97 0.4 CALM 0 0 0 0 1007.4 1007.4 0.0
23/01:30am 28.2 36.0 27.1 94 0.8 CALM 0 0 0 0 1007.6 1007.6 0.0
23/01:00am 28.1 36.0 27.2 95 0.6 CALM 0 0 0 0 1008.2 1008.2 0.0
23/12:30am 28.0 35.8 27.1 95 0.6 CALM 0 0 0 0 1008.4 1008.4 0.0
23/12:00am 28.4 35.6 26.2 88 1.6 CALM 0 0 0 0 1008.4 1008.4 0.0
 
Date/Time
WST
Temp
°C
App
Temp
°C
Dew
Point
°C
Rel
Hum
%
Delta-T
°C
Wind Press
QNH
hPa
Press
MSL
hPa
Rain since
9am
mm
Dir  Spd
km/h
Gust
km/h
Spd
kts
Gust
kts
22/11:30pm 29.2 36.6 26.4 85 2.0 CALM 0 0 0 0 1008.7 1008.7 0.0
22/11:00pm 29.3 36.6 26.3 84 2.1 CALM 0 0 0 0 1008.9 1008.9 0.0
22/10:30pm 29.0 36.0 25.8 83 2.3 CALM 0 0 0 0 1009.4 1009.4 0.0
22/10:00pm 28.7 35.7 25.9 85 2.0 CALM 0 0 0 0 1009.7 1009.7 0.0
22/09:30pm 29.2 34.6 25.4 80 2.7 NNE 7 9 4 5 1009.7 1009.7 0.0
22/09:00pm 29.9 35.3 25.4 77 3.2 NW 7 9 4 5 1009.2 1009.2 0.0
22/08:30pm 29.8 36.1 25.3 77 3.2 N 2 9 1 5 1008.8 1008.8 0.0
22/08:00pm 30.4 35.7 25.0 73 3.8 N 6 7 3 4 1008.5 1008.5 0.0
22/07:30pm 31.0 36.7 24.4 68 4.6 WSW 2 9 1 5 1008.2 1008.2 0.0
22/07:00pm 31.3 37.0 24.4 66 4.8 ENE 2 11 1 6 1007.5 1007.5 0.0
22/06:30pm 31.1 36.5 23.2 63 5.4 CALM 0 0 0 0 1006.8 1006.8 0.0
22/06:00pm 31.3 37.3 24.2 66 5.0 CALM 0 0 0 0 1006.4 1006.4 0.0
22/05:30pm 32.1 37.7 23.6 60 5.9 CALM 0 0 0 0 1006.0 1006.0 0.0
22/05:00pm 31.6 36.7 23.4 61 5.7 NE 2 9 1 5 1005.6 1005.6 0.0
22/04:30pm 31.2 35.2 22.8 61 5.8 NW 6 9 3 5 1005.7 1005.7 0.0
22/04:00pm 30.7 33.0 22.0 59 5.9 WNW 13 19 7 10 1005.3 1005.3 0.0
22/03:30pm 28.7 30.8 21.7 66 4.7 NNW 13 20 7 11 1005.5 1005.5 0.0
22/03:09pm 30.2 28.6 21.6 60 5.8 NNE 32 50 17 27 1005.6 1005.6 0.0
22/03:00pm 31.8 31.5 20.4 51 7.6 NE 22 50 12 27 1005.7 1005.7 0.0
22/02:59pm 32.1 32.2 20.4 50 7.8 NE 20 50 11 27 1005.8 1005.8 0.0
22/02:30pm 37.0 41.0 23.8 46 9.3 NNW 9 15 5 8 1005.1 1005.1 0.0
22/02:00pm 37.0 40.8 23.4 45 9.5 NW 9 15 5 8 1005.7 1005.7 0.0
22/01:30pm 36.2 39.8 23.1 47 9.1 NW 9 15 5 8 1006.3 1006.3 0.0
22/01:00pm 36.3 40.8 23.9 49 8.7 NE 7 13 4 7 1006.6 1006.6 0.0
22/12:30pm 35.6 38.9 23.2 48 8.6 WNW 11 19 6 10 1006.8 1006.8 0.0
22/12:00pm 35.9 40.7 24.2 51 8.3 NNW 6 13 3 7 1007.1 1007.1 0.0
22/11:30am 34.7 39.2 24.0 53 7.5 W 7 9 4 5 1007.7 1007.7 0.0
22/11:00am 35.0 39.9 25.2 57 7.0 NNW 9 15 5 8 1007.9 1007.9 0.0
22/10:30am 34.2 39.2 24.5 57 6.8 NW 6 9 3 5 1008.3 1008.3 0.0
22/10:00am 34.1 40.1 25.5 61 6.1 SSE 4 7 2 4 1008.5 1008.5 0.0

Other Formats:

Comma delimited format used in spreadsheet applications
http://www.bom.gov.au/fwo/IDW60801/IDW60801.95214.axf

JavaScript Object Notation format (JSON) in row-major order
http://www.bom.gov.au/fwo/IDW60801/IDW60801.95214.json